Tiempo atmosférico en la estación meteorológica de Bicorp, València/Valencia (299 m.)



Fecha
DESCASC
Temp. máxima en grados centígrados (hora)
DESCASC
Temp. mínima en grados centígrados (hora)
DESCASC
Temp. media en grados centígrados
DESCASC
Racha de viento máxima en m/sg (hora)
DESCASC
Velocidad máxima media en intervalos de 10 minutos(hora)
DESCASC
Precipitaciones diarias en mm
DESCASC
Precipitaciones de 00:00 a 06:00 en mm
DESCASC
Precipitaciones de 06:00 a 12:00 en mm
DESCASC
Precipitaciones de 12:00 a 18:00 en mm
DESCASC
Precipitaciones de 18:00 a 24:00 en mm
DESCASC
02-08-2020 34 (14:40) 19 (07:00) 26.5 7.5 (17:00) 4.17 (17:00) 0 0 0 0 0
01-08-2020 42.9 (17:20) 22.1 (05:50) 32.5 8.89 (18:50) 4.17 (14:40) 0 0 0 0 0
31-07-2020 37.6 (16:50) 20.3 (06:50) 28.9 6.67 (14:10) 3.33 (21:30) 0 0 0 0 0
30-07-2020 34.9 (16:30) 18.7 (00:00) 26.8 6.67 (17:10) 3.33 (15:00) 0 0 0 0 0
29-07-2020 32.1 (15:30) 20.7 (00:00) 26.4 7.5 (15:00) 3.89 (17:00) 0 0 0 0 0
28-07-2020 34.2 (14:30) 19.1 (07:20) 26.7 7.5 (14:50) 4.17 (17:30) 0 0 0 0 0
27-07-2020 35.9 (15:40) 19.1 (00:00) 27.5 7.22 (16:00) 3.33 (16:10) 0 0 0 0 0
26-07-2020 33.1 (14:10) 20.2 (00:00) 26.6 7.78 (16:30) 3.89 (15:50) 0 0 0 0 0
25-07-2020 33.5 (15:20) 20.3 (07:20) 26.9 6.67 (15:20) 3.89 (17:30) 0 0 0 0 0
24-07-2020 33.9 (15:30) 19.2 (00:00) 26.6 7.78 (15:50) 3.89 (15:50) 0 0 0 0 0
23-07-2020 35.3 (16:30) 17 (00:00) 26.1 6.39 (17:20) 3.89 (17:20) 0 0 0 0 0
22-07-2020 28.9 (18:00) 20.6 (05:40) 24.8 10 (13:00) 5.28 (13:00) 0.8 0 0.2 0.6 0
21-07-2020 -- (--) -- (--) -- 7.78 (13:50) 4.44 (17:50) 0 0 0 0 0
20-07-2020 -- (--) -- (--) -- 12.78 (15:40) 4.17 (18:30) 0 0 0 0 0
19-07-2020 35 (15:10) 18.6 (00:00) 26.8 7.22 (18:40) 4.72 (19:10) 0 0 0 0 0
18-07-2020 32.1 (15:50) 19.9 (00:00) 26 7.5 (15:20) 3.61 (16:10) 0 0 0 0 0
17-07-2020 30.7 (15:40) 17.9 (00:00) 24.3 8.33 (18:00) 4.72 (18:00) 0 0 0 0 0
16-07-2020 30.8 (15:00) 17.5 (00:00) 24.1 7.5 (15:40) 3.61 (15:40) 0 0 0 0 0
15-07-2020 30.2 (17:00) 15.5 (06:20) 22.9 6.39 (18:10) 3.06 (18:10) 0 0 0 0 0
14-07-2020 29.1 (14:50) 17.2 (00:00) 23.2 7.5 (19:50) 4.17 (16:40) 6.2 0 1 0.2 5
13-07-2020 30.4 (15:20) 17 (07:10) 23.7 7.5 (14:20) 3.61 (18:50) 0.4 0.4 0 0 0
12-07-2020 29.2 (14:40) 19.3 (06:00) 24.3 7.78 (23:30) 4.17 (15:10) 5.2 0 0 0.4 4.8
11-07-2020 30 (15:20) 17.8 (06:20) 23.9 7.78 (15:20) 4.17 (12:50) 0 0 0 0 0
10-07-2020 32.1 (16:10) 17.8 (00:00) 24.9 7.5 (15:30) 3.61 (16:50) 0 0 0 0 0
09-07-2020 31.9 (14:40) 19.9 (06:50) 25.9 8.06 (14:50) 4.44 (17:20) 0 0 0 0 0
08-07-2020 30.6 (15:40) 19.9 (06:40) 25.3 7.78 (14:40) 4.17 (13:40) 0 0 0 0 0

Gráficas

Temp. máximas Temp. mínimas Temp. medias Precipitaciones Rachas de viento máximas Velocidades máximas media en intervalos de 10 minutos

Datos horarios

Fecha y hora oficial Temperatura (ºC) Velocidad del viento (km/h) Dirección del viento Racha (km/h) Dirección de racha Precipitación (mm) Presión (hPa) Tendencia (hPa) Humedad (%)
2020-08-06 23:00:00 22.9 0 Calma 2 Oeste 0 -- -- 54
2020-08-06 22:00:00 25.1 0 Calma 11 Nordeste 0 -- -- 48
2020-08-06 21:00:00 26.9 5 Nordeste 18 Nordeste 0 -- -- 45
2020-08-06 20:00:00 28.9 11 Nordeste 19 Este 0 -- -- 47
2020-08-06 19:00:00 31.2 12 Nordeste 22 Nordeste 0 -- -- 46
2020-08-06 18:00:00 33 11 Este 23 Este 0 -- -- 42
2020-08-06 17:00:00 33.4 12 Este 25 Este 0 -- -- 44
2020-08-06 16:00:00 33.5 12 Este 25 Sudeste 0 -- -- 47
2020-08-06 15:00:00 33.9 9 Este 28 Este 0 -- -- 41
2020-08-06 14:00:00 32.9 9 Este 21 Este 0 -- -- 45
2020-08-06 13:00:00 31.1 7 Este 18 Este 0 -- -- 51
2020-08-06 12:00:00 29.7 7 Nordeste 17 Este 0 -- -- 55
2020-08-06 11:00:00 27.8 5 Este 9 Norte 0 -- -- 60
2020-08-06 10:00:00 26.1 3 Sur 8 Sudoeste 0 -- -- 67
2020-08-06 09:00:00 24.5 2 Sur 5 Sudeste 0 -- -- 75
2020-08-06 08:00:00 23.4 0 Calma 2 Sur 0 -- -- 79
2020-08-06 07:00:00 22.9 0 Calma 4 Oeste 0 -- -- 80
2020-08-06 06:00:00 22.6 0 Calma 2 Norte 0 -- -- 79
2020-08-06 05:00:00 22.7 0 Calma 5 Norte 0 -- -- 79
2020-08-06 04:00:00 22.1 3 Noroeste 6 Oeste 0 -- -- 79
2020-08-06 03:00:00 21.8 0 Calma 8 Oeste 0 -- -- 76
2020-08-06 02:00:00 22.4 4 Oeste 8 Sudoeste 0 -- -- 74
2020-08-06 01:00:00 22.7 0 Calma 4 Oeste 0 -- -- 72
2020-08-06 00:00:00 23.7 0 Calma 4 Sudeste 0 -- -- 68
2020-08-05 23:00:00 24.4 0 Calma 6 Norte 0 -- -- 63
2020-08-05 22:00:00 26 3 Norte 17 Nordeste 0 -- -- 57
2020-08-05 21:00:00 27.1 7 Nordeste 23 Nordeste 0 -- -- 59
2020-08-05 20:00:00 28.6 12 Nordeste 21 Nordeste 0 -- -- 56
2020-08-05 19:00:00 30.7 12 Nordeste 24 Nordeste 0 -- -- 52
2020-08-05 18:00:00 32.7 11 Este 23 Este 0 -- -- 48
2020-08-05 17:00:00 33.4 12 Este 23 Este 0 -- -- 45
2020-08-05 16:00:00 33.8 14 Este 23 Este 0 -- -- 42
2020-08-05 15:00:00 33.4 10 Este 28 Nordeste 0 -- -- 40
2020-08-05 14:00:00 32.8 9 Este 23 Este 0 -- -- 42
2020-08-05 13:00:00 31.5 10 Este 19 Este 0 -- -- 47
2020-08-05 12:00:00 29.4 5 Este 14 Sudeste 0 -- -- 56
2020-08-05 11:00:00 28.3 5 Este 14 Norte 0 -- -- 58
2020-08-05 10:00:00 25.8 5 Nordeste 12 Nordeste 0 -- -- 68
2020-08-05 09:00:00 24.2 2 Este 5 Este 0 -- -- 75
2020-08-05 08:00:00 21.7 0 Calma 3 Nordeste 0 -- -- 85
2020-08-05 07:00:00 21.1 3 Sudoeste 13 Sudoeste 0 -- -- 86
2020-08-05 06:00:00 20.8 4 Oeste 9 Oeste 0 -- -- 87
2020-08-05 05:00:00 21 5 Sudoeste 8 Sudoeste 0 -- -- 86
2020-08-05 04:00:00 21.7 4 Sudoeste 7 Oeste 0 -- -- 85
2020-08-05 03:00:00 22.1 4 Sudoeste 7 Sudoeste 0 -- -- 84
2020-08-05 02:00:00 23 0 Calma 5 Oeste 0 -- -- 80
2020-08-05 01:00:00 23.9 0 Calma 8 Nordeste 0 -- -- 78
2020-08-05 00:00:00 24.7 3 Nordeste 12 Nordeste 0 -- -- 77
2020-08-04 23:00:00 25 6 Nordeste 10 Nordeste 0 -- -- 77
2020-08-04 22:00:00 25.3 5 Nordeste 19 Nordeste 0 -- -- 76
2020-08-04 21:00:00 25.9 8 Nordeste 21 Nordeste 0 -- -- 74
2020-08-04 20:00:00 27.8 12 Este 22 Nordeste 0 -- -- 66
2020-08-04 19:00:00 30.1 10 Este 21 Nordeste 0 -- -- 57
2020-08-04 18:00:00 30.3 11 Este 23 Sudeste 0 -- -- 55
2020-08-04 17:00:00 30.9 12 Este 22 Nordeste 0 -- -- 51
2020-08-04 16:00:00 29.6 10 Este 22 Sudeste 0 -- -- 53
2020-08-04 15:00:00 28.3 12 Este 23 Sudeste 0 -- -- 57
2020-08-04 14:00:00 28.9 10 Este 25 Nordeste 0 -- -- 60
2020-08-04 13:00:00 29.5 10 Este 22 Sudeste 0 -- -- 56
2020-08-04 12:00:00 29.6 10 Este 18 Este 0 -- -- 57
2020-08-04 11:00:00 26.8 6 Este 15 Este 0 -- -- 66
2020-08-04 10:00:00 25.8 5 Sudeste 12 Este 0 -- -- 72
2020-08-04 09:00:00 24.2 2 Este 5 Nordeste 0 -- -- 77
2020-08-04 08:00:00 23.7 0 Calma 5 Sudoeste 0 -- -- 80
2020-08-04 07:00:00 23.4 2 Este 5 Este 0 -- -- 80
2020-08-04 06:00:00 23.6 3 Norte 7 Noroeste 0 -- -- 79
2020-08-04 05:00:00 23.9 0 Calma 6 Nordeste 0 -- -- 79
2020-08-04 04:00:00 24.1 3 Este 8 Nordeste 0 -- -- 81
2020-08-04 03:00:00 24.2 2 Nordeste 3 Nordeste 0 -- -- 79
2020-08-04 02:00:00 24.2 0 Calma 3 Norte 0 -- -- 78
2020-08-04 01:00:00 24 0 Calma 5 Norte 0 -- -- 78
2020-08-04 00:00:00 23.7 0 Calma 5 Nordeste 0 -- -- 79
2020-08-03 23:00:00 23.6 3 Nordeste 6 Nordeste 0 -- -- 77
2020-08-03 22:00:00 24 4 Nordeste 12 Este 0 -- -- 75
2020-08-03 21:00:00 25.1 8 Nordeste 19 Nordeste 0 -- -- 71
2020-08-03 20:00:00 26.5 11 Nordeste 24 Nordeste 0 -- -- 65
2020-08-03 19:00:00 28.7 11 Este 22 Este 0 -- -- 59
2020-08-03 18:00:00 29.4 10 Este 23 Este 0 -- -- 57
2020-08-03 17:00:00 29.6 10 Este 20 Sudeste 0 -- -- 57
2020-08-03 16:00:00 29.1 11 Este 23 Este 0 -- -- 59
2020-08-03 15:00:00 28.4 11 Este 31 Este 0 -- -- 62
2020-08-03 14:00:00 29.1 13 Este 28 Este 0 -- -- 61
2020-08-03 13:00:00 26.4 12 Nordeste 23 Nordeste 0 -- -- 66
2020-08-03 12:00:00 26.3 8 Norte 19 Nordeste 0 -- -- 64
2020-08-03 11:00:00 25.4 5 Nordeste 10 Nordeste 0 -- -- 68
2020-08-03 10:00:00 25 3 Nordeste 8 Este 0 -- -- 69
2020-08-03 09:00:00 24.1 4 Norte 10 Nordeste 0 -- -- 72
2020-08-03 08:00:00 24 4 Este 19 Nordeste 0 -- -- 74
2020-08-03 07:00:00 24.3 2 Norte 10 Norte 0 -- -- 83
2020-08-03 06:00:00 24.4 0 Calma 6 Norte 0 -- -- 84
2020-08-03 05:00:00 24.3 3 Nordeste 7 Este 0 -- -- 85
2020-08-03 04:00:00 24.6 0 Calma 9 Nordeste 0 -- -- 85
2020-08-03 03:00:00 25.2 6 Nordeste 14 Este 0 -- -- 84
2020-08-03 02:00:00 25.7 3 Sudeste 7 Este 0 -- -- 80
2020-08-03 01:00:00 25.6 3 Noroeste 9 Norte 0 -- -- 78
2020-08-03 00:00:00 25.2 4 Norte 8 Norte 0 -- -- 80
2020-08-02 23:00:00 25.1 2 Nordeste 6 Este 0 -- -- 79
2020-08-02 22:00:00 26 3 Este 13 Nordeste 0 -- -- 75
2020-08-02 21:00:00 27 8 Nordeste 17 Nordeste 0 -- -- 69
2020-08-02 20:00:00 28.6 12 Nordeste 21 Nordeste 0 -- -- 61
2020-08-02 19:00:00 31 11 Este 26 Este 0 -- -- 54
2020-08-02 18:00:00 31.5 13 Nordeste 26 Nordeste 0 -- -- 52
2020-08-02 17:00:00 32.7 15 Nordeste 27 Nordeste 0 -- -- 53
2020-08-02 16:00:00 33.5 12 Nordeste 26 Este 0 -- -- 50
2020-08-02 15:00:00 33.6 12 Este 24 Sudeste 0 -- -- 49
2020-08-02 14:00:00 33.2 11 Sudeste 23 Este 0 -- -- 47
2020-08-02 13:00:00 32.6 9 Sudeste 17 Este 0 -- -- 48
2020-08-02 12:00:00 31.3 6 Este 16 Este 0 -- -- 52
2020-08-02 11:00:00 30 6 Sudeste 13 Este 0 -- -- 56
2020-08-02 10:00:00 29.1 4 Nordeste 8 Este 0 -- -- 55
2020-08-02 09:00:00 26.2 0 Calma 9 Oeste 0 -- -- 40
2020-08-02 08:00:00 20.8 5 Oeste 11 Oeste 0 -- -- 53
2020-08-02 07:00:00 19 2 Sudoeste 7 Sudoeste 0 -- -- 76
2020-08-02 06:00:00 19.7 0 Calma 7 Noroeste 0 -- -- 72
2020-08-02 05:00:00 20 0 Calma 10 Sudoeste 0 -- -- 75
2020-08-02 04:00:00 20.8 2 Nordeste 9 Oeste 0 -- -- 75
2020-08-02 03:00:00 21.9 5 Sudoeste 10 Oeste 0 -- -- 71
2020-08-02 02:00:00 23.2 2 Oeste 9 Oeste 0 -- -- 73
2020-08-02 01:00:00 24 4 Sudoeste 13 Sudoeste 0 -- -- 67
2020-08-02 00:00:00 25.7 4 Oeste 9 Oeste 0 -- -- 76
2020-08-01 23:00:00 26 5 Norte 9 Nordeste 0 -- -- 78
2020-08-01 22:00:00 27.8 6 Nordeste 22 Este 0 -- -- 71
2020-08-01 21:00:00 36.9 3 Noroeste 15 Sudoeste 0 -- -- 13
2020-08-01 20:00:00 40.1 8 Oeste 26 Sudoeste 0 -- -- 10
2020-08-01 19:00:00 41.7 12 Oeste 32 Sudoeste 0 -- -- 10
2020-08-01 18:00:00 42.8 12 Sudoeste 31 Oeste 0 -- -- 11
2020-08-01 17:00:00 42.3 12 Noroeste 28 Norte 0 -- -- 15
2020-08-01 16:00:00 42.3 11 Noroeste 28 Norte 0 -- -- 16
2020-08-01 15:00:00 41.7 12 Oeste 32 Sudoeste 0 -- -- 16
2020-08-01 14:00:00 41 10 Sudoeste 25 Sudoeste 0 -- -- 17
2020-08-01 13:00:00 40 6 Sudeste 24 Oeste 0 -- -- 19
2020-08-01 12:00:00 38.1 10 Sudoeste 28 Sudoeste 0 -- -- 20
2020-08-01 11:00:00 34.5 5 Este 16 Sur 0 -- -- 33
2020-08-01 10:00:00 28.7 4 Nordeste 9 Nordeste 0 -- -- 54
2020-08-01 09:00:00 24.3 3 Sudoeste 8 Sudoeste 0 -- -- 69
2020-08-01 08:00:00 22.3 3 Noroeste 10 Norte 0 -- -- 74
2020-08-01 07:00:00 22.5 5 Sudoeste 12 Sudoeste 0 -- -- 72
2020-08-01 06:00:00 22.5 4 Oeste 8 Sudoeste 0 -- -- 74
2020-08-01 05:00:00 22.3 0 Calma 5 Sudoeste 0 -- -- 76
2020-08-01 04:00:00 22.7 0 Calma 14 Oeste 0 -- -- 79
2020-08-01 03:00:00 23.1 4 Oeste 9 Oeste 0 -- -- 77
2020-08-01 02:00:00 23.8 4 Oeste 7 Oeste 0 -- -- 80
2020-08-01 01:00:00 24.6 2 Sudoeste 6 Sudoeste 0 -- -- 82
2020-08-01 00:00:00 25.1 0 Calma 5 Oeste 0 -- -- 83
2020-07-31 23:00:00 26.4 3 Sudoeste 13 Este 0 -- -- 80
2020-07-31 22:00:00 27.3 7 Este 19 Este 0 -- -- 76
2020-07-31 21:00:00 30.5 9 Este 16 Este 0 -- -- 57
2020-07-31 20:00:00 33.5 11 Este 19 Este 0 -- -- 44
2020-07-31 19:00:00 35.7 9 Sudeste 18 Este 0 -- -- 35
2020-07-31 18:00:00 36.9 11 Este 21 Este 0 -- -- 34
2020-07-31 17:00:00 37.4 11 Este 19 Este 0 -- -- 32
2020-07-31 16:00:00 37.3 12 Este 20 Este 0 -- -- 30
2020-07-31 15:00:00 36.5 9 Este 24 Sudeste 0 -- -- 32
2020-07-31 14:00:00 36 10 Sudeste 22 Sudeste 0 -- -- 33
2020-07-31 13:00:00 35 9 Este 16 Este 0 -- -- 33
2020-07-31 12:00:00 33.6 6 Sudeste 11 Nordeste 0 -- -- 34
2020-07-31 11:00:00 30.9 5 Nordeste 10 Norte 0 -- -- 39
2020-07-31 10:00:00 29.4 3 Este 7 Este 0 -- -- 43
2020-07-31 09:00:00 25.9 4 Sudoeste 11 Sudoeste 0 -- -- 51
2020-07-31 08:00:00 21.5 4 Sudoeste 11 Sudoeste 0 -- -- 62
2020-07-31 07:00:00 20.3 3 Sudoeste 8 Oeste 0 -- -- 66
2020-07-31 06:00:00 21 4 Sudoeste 8 Oeste 0 -- -- 64
2020-07-31 05:00:00 22.1 6 Oeste 10 Oeste 0 -- -- 61
2020-07-31 04:00:00 22.7 5 Sudoeste 11 Sudoeste 0 -- -- 59
2020-07-31 03:00:00 23.9 5 Oeste 15 Sudoeste 0 -- -- 59
2020-07-31 02:00:00 24.2 4 Sudoeste 19 Noroeste 0 -- -- 58
2020-07-31 01:00:00 24 7 Oeste 15 Sudoeste 0 -- -- 70
2020-07-31 00:00:00 25.1 5 Oeste 10 Sudoeste 0 -- -- 68
2020-07-30 23:00:00 26.2 0 Calma 12 Sur 0 -- -- 65
2020-07-30 22:00:00 27.2 5 Sudoeste 12 Nordeste 0 -- -- 64
2020-07-30 21:00:00 28.5 3 Este 11 Este 0 -- -- 56
2020-07-30 20:00:00 29.9 6 Este 17 Este 0 -- -- 51
2020-07-30 19:00:00 32.3 9 Nordeste 21 Nordeste 0 -- -- 41
2020-07-30 18:00:00 33.8 12 Este 24 Este 0 -- -- 35
2020-07-30 17:00:00 34.4 11 Este 21 Nordeste 0 -- -- 39
2020-07-30 16:00:00 34.6 8 Sudeste 19 Sudeste 0 -- -- 38
2020-07-30 15:00:00 33.8 12 Este 18 Este 0 -- -- 38
2020-07-30 14:00:00 32.6 8 Sudeste 18 Sudeste 0 -- -- 40
2020-07-30 13:00:00 32.5 9 Sudeste 21 Este 0 -- -- 41
2020-07-30 12:00:00 30.8 11 Nordeste 21 Nordeste 0 -- -- 47
2020-07-30 11:00:00 29 6 Este 15 Este 0 -- -- 51
2020-07-30 10:00:00 27.1 3 Nordeste 8 Este 0 -- -- 54
2020-07-30 09:00:00 24 0 Calma 6 Sudoeste 0 -- -- 59
2020-07-30 08:00:00 19.5 6 Sudoeste 9 Sudoeste 0 -- -- 70
2020-07-30 07:00:00 18.8 3 Oeste 12 Sudoeste 0 -- -- 75
2020-07-30 06:00:00 19.6 3 Sudoeste 10 Sudoeste 0 -- -- 80
2020-07-30 05:00:00 20.6 3 Sudoeste 15 Sudoeste 0 -- -- 87
2020-07-30 04:00:00 21.1 4 Sudoeste 8 Sudoeste 0 -- -- 88
2020-07-30 03:00:00 21.4 0 Calma 8 Oeste 0 -- -- 88
2020-07-30 02:00:00 22.5 3 Noroeste 10 Oeste 0 -- -- 87
2020-07-30 01:00:00 22.5 0 Calma 4 Oeste 0 -- -- 86
2020-07-30 00:00:00 23.2 0 Calma 5 Nordeste 0 -- -- 84
2020-07-29 23:00:00 24.2 0 Calma 7 Nordeste 0 -- -- 82
2020-07-29 22:00:00 25.1 5 Nordeste 11 Este 0 -- -- 77
2020-07-29 21:00:00 26.9 8 Nordeste 17 Sudeste 0 -- -- 66
2020-07-29 20:00:00 28.7 9 Este 20 Este 0 -- -- 55
2020-07-29 19:00:00 30.4 12 Este 22 Este 0 -- -- 50
2020-07-29 18:00:00 31.2 12 Este 25 Este 0 -- -- 47
2020-07-29 17:00:00 31.6 14 Este 25 Este 0 -- -- 51
2020-07-29 16:00:00 31.6 11 Este 25 Este 0 -- -- 52
2020-07-29 15:00:00 31.4 13 Este 27 Sur 0 -- -- 51
2020-07-29 14:00:00 31.2 9 Este 23 Este 0 -- -- 53
2020-07-29 13:00:00 29.9 12 Sudeste 26 Este 0 -- -- 57
2020-07-29 12:00:00 28.8 11 Este 19 Nordeste 0 -- -- 63
2020-07-29 11:00:00 26.6 3 Sudeste 13 Este 0 -- -- 74
2020-07-29 10:00:00 25.4 5 Este 8 Sudeste 0 -- -- 77
2020-07-29 09:00:00 23.8 0 Calma 3 Sur 0 -- -- 81
2020-07-29 08:00:00 22 3 Sudoeste 6 Sudoeste 0 -- -- 87
2020-07-29 07:00:00 21.2 0 Calma 6 Sudoeste 0 -- -- 89
2020-07-29 06:00:00 20.7 2 Sudoeste 8 Sudoeste 0 -- -- 88
2020-07-29 05:00:00 20.7 5 Sudoeste 8 Oeste 0 -- -- 87
2020-07-29 04:00:00 21 2 Sudoeste 6 Sudoeste 0 -- -- 83
2020-07-29 03:00:00 21.6 4 Oeste 8 Oeste 0 -- -- 81
2020-07-29 02:00:00 21.9 5 Oeste 9 Oeste 0 -- -- 80
2020-07-29 01:00:00 22.6 5 Sudoeste 8 Oeste 0 -- -- 79
2020-07-29 00:00:00 23.4 0 Calma 6 Oeste 0 -- -- 75
2020-07-28 23:00:00 24.4 0 Calma 4 Nordeste 0 -- -- 74
2020-07-28 22:00:00 25.7 3 Nordeste 10 Este 0 -- -- 70
2020-07-28 21:00:00 27.6 6 Este 15 Nordeste 0 -- -- 62
2020-07-28 20:00:00 29.2 9 Nordeste 21 Nordeste 0 -- -- 54
2020-07-28 19:00:00 31 12 Nordeste 23 Nordeste 0 -- -- 45
2020-07-28 18:00:00 32.5 14 Este 25 Este 0 -- -- 42
2020-07-28 17:00:00 33.5 14 Este 26 Este 0 -- -- 42
2020-07-28 16:00:00 33.6 13 Sudeste 26 Sudeste 0 -- -- 41
2020-07-28 15:00:00 33.4 13 Sudeste 27 Sudeste 0 -- -- 43
2020-07-28 14:00:00 33.7 10 Este 25 Sudeste 0 -- -- 44
2020-07-28 13:00:00 32.3 11 Sudeste 23 Este 0 -- -- 46
2020-07-28 12:00:00 31.7 12 Sudeste 20 Sudeste 0 -- -- 44
2020-07-28 11:00:00 31 8 Sudeste 15 Este 0 -- -- 43
2020-07-28 10:00:00 28.9 3 Sudeste 6 Este 0 -- -- 46
2020-07-28 09:00:00 24.5 0 Calma 8 Sudoeste 0 -- -- 58
2020-07-28 08:00:00 19.9 2 Sudoeste 6 Oeste 0 -- -- 72
2020-07-28 07:00:00 19.2 0 Calma 5 Sudoeste 0 -- -- 78
2020-07-28 06:00:00 19.7 0 Calma 7 Oeste 0 -- -- 77
2020-07-28 05:00:00 20.6 2 Oeste 6 Oeste 0 -- -- 77
2020-07-28 04:00:00 21.9 7 Oeste 12 Oeste 0 -- -- 71
2020-07-28 03:00:00 22.6 5 Sudoeste 9 Oeste 0 -- -- 69
2020-07-28 02:00:00 23.2 6 Oeste 9 Oeste 0 -- -- 70
2020-07-28 01:00:00 23.8 0 Calma 8 Oeste 0 -- -- 69
2020-07-28 00:00:00 25.2 0 Calma 8 Norte 0 -- -- 65
2020-07-27 23:00:00 26.5 4 Norte 8 Nordeste 0 -- -- 60
2020-07-27 22:00:00 28.3 5 Nordeste 10 Nordeste 0 -- -- 54
2020-07-27 21:00:00 30.9 3 Este 13 Este 0 -- -- 45
2020-07-27 20:00:00 33.2 6 Este 15 Este 0 -- -- 44
2020-07-27 19:00:00 35 6 Este 17 Nordeste 0 -- -- 39
2020-07-27 18:00:00 34.7 12 Nordeste 20 Sudeste 0 -- -- 43
2020-07-27 17:00:00 35.3 8 Este 23 Este 0 -- -- 42
2020-07-27 16:00:00 35.7 12 Este 26 Este 0 -- -- 41
2020-07-27 15:00:00 35.5 10 Este 21 Este 0 -- -- 40
2020-07-27 14:00:00 34.5 9 Este 19 Este 0 -- -- 43
2020-07-27 13:00:00 32.6 8 Nordeste 20 Este 0 -- -- 44
2020-07-27 12:00:00 31 6 Sudeste 15 Sudeste 0 -- -- 49
2020-07-27 09:00:00 -- -- -- -- -- -- -- -- --
2020-07-27 08:00:00 20 3 Sudoeste 6 Oeste 0 -- -- 89
2020-07-27 07:00:00 19.1 0 Calma 6 Sudoeste 0 -- -- 89
2020-07-27 06:00:00 19.4 3 Sudoeste 7 Sudoeste 0 -- -- 89
2020-07-27 05:00:00 19.9 2 Oeste 7 Sudoeste 0 -- -- 88
2020-07-27 04:00:00 20.4 4 Sudoeste 8 Oeste 0 -- -- 85
2020-07-27 03:00:00 21.1 2 Oeste 9 Oeste 0 -- -- 84
2020-07-27 02:00:00 21.7 6 Sudoeste 10 Sudoeste 0 -- -- 83
2020-07-27 01:00:00 22.4 0 Calma 6 Oeste 0 -- -- 81
2020-07-27 00:00:00 23.2 0 Calma 5 Nordeste 0 -- -- 79
2020-07-26 23:00:00 24 2 Nordeste 12 Este 0 -- -- 79
2020-07-26 22:00:00 25 6 Nordeste 13 Este 0 -- -- 75
2020-07-26 21:00:00 26.8 7 Este 15 Nordeste 0 -- -- 70
2020-07-26 20:00:00 28.9 9 Este 19 Nordeste 0 -- -- 60
2020-07-26 19:00:00 30.3 11 Sudeste 21 Este 0 -- -- 58
2020-07-26 18:00:00 31.7 11 Sudeste 23 Sudeste 0 -- -- 56
2020-07-26 17:00:00 32 12 Sudeste 28 Sudeste 0 -- -- 54
2020-07-26 16:00:00 32.6 13 Este 25 Sudeste 0 -- -- 53
2020-07-26 15:00:00 32.8 13 Este 25 Este 0 -- -- 51
2020-07-26 14:00:00 33 10 Este 19 Este 0 -- -- 48
2020-07-26 13:00:00 31.5 10 Sudeste 21 Este 0 -- -- 52
2020-07-26 12:00:00 30.4 8 Nordeste 14 Este 0 -- -- 51
2020-07-26 11:00:00 28.8 4 Nordeste 13 Este 0 -- -- 57
2020-07-26 10:00:00 27.2 5 Este 9 Nordeste 0 -- -- 63
2020-07-26 09:00:00 24.2 5 Sudoeste 11 Sudoeste 0 -- -- 71
2020-07-26 08:00:00 20.7 3 Sudoeste 9 Sudoeste 0 -- -- 84
2020-07-26 07:00:00 20.3 6 Oeste 10 Oeste 0 -- -- 84
2020-07-26 06:00:00 21 5 Oeste 10 Oeste 0 -- -- 85
2020-07-26 05:00:00 20.8 3 Oeste 6 Oeste 0 -- -- 86
2020-07-26 04:00:00 21.1 0 Calma 4 Oeste 0 -- -- 83
2020-07-26 03:00:00 22 0 Calma 5 Noroeste 0 -- -- 82
2020-07-26 02:00:00 22.1 3 Sudoeste 8 Oeste 0 -- -- 80
2020-07-26 01:00:00 22.6 4 Oeste 6 Oeste 0 -- -- 78
2020-07-26 00:00:00 23.3 0 Calma 6 Nordeste 0 -- -- 75
2020-07-25 23:00:00 23.9 4 Nordeste 7 Este 0 -- -- 73
2020-07-25 22:00:00 25.4 4 Nordeste 9 Este 0 -- -- 66
2020-07-25 21:00:00 27.3 5 Este 18 Este 0 -- -- 61
2020-07-25 20:00:00 29.4 8 Este 17 Este 0 -- -- 54
2020-07-25 19:00:00 30.9 9 Este 21 Este 0 -- -- 49
2020-07-25 18:00:00 31.7 11 Este 23 Este 0 -- -- 51
2020-07-25 17:00:00 32.8 12 Sudeste 24 Este 0 -- -- 51
2020-07-25 16:00:00 33.3 9 Sudeste 24 Este 0 -- -- 47
2020-07-25 15:00:00 32.8 9 Este 21 Este 0 -- -- 47
2020-07-25 14:00:00 32.3 9 Sudeste 21 Este 0 -- -- 47
2020-07-25 13:00:00 30.6 8 Este 15 Este 0 -- -- 51
2020-07-25 12:00:00 28.5 7 Norte 13 Nordeste 0 -- -- 57
2020-07-25 11:00:00 27.2 5 Nordeste 14 Este 0 -- -- 63
2020-07-25 10:00:00 25.9 6 Este 13 Este 0 -- -- 69
2020-07-25 09:00:00 23.1 0 Calma 6 Sudoeste 0 -- -- 77
2020-07-25 08:00:00 20.9 2 Sudoeste 5 Oeste 0 -- -- 82
2020-07-25 07:00:00 20.5 3 Oeste 7 Sudoeste 0 -- -- 85
2020-07-25 06:00:00 20.6 6 Oeste 8 Oeste 0 -- -- 85
2020-07-25 05:00:00 21 5 Oeste 7 Oeste 0 -- -- 84
2020-07-25 04:00:00 21.5 4 Sudoeste 6 Sudoeste 0 -- -- 83
2020-07-25 03:00:00 21.7 4 Oeste 7 Oeste 0 -- -- 84
2020-07-25 02:00:00 22.2 3 Oeste 6 Oeste 0 -- -- 82
2020-07-25 01:00:00 22.8 2 Oeste 5 Oeste 0 -- -- 79
2020-07-25 00:00:00 23.2 0 Calma 6 Nordeste 0 -- -- 79
2020-07-24 23:00:00 24.1 5 Este 12 Este 0 -- -- 77
2020-07-24 22:00:00 25.2 6 Nordeste 18 Este 0 -- -- 71
2020-07-24 21:00:00 27.1 8 Este 18 Nordeste 0 -- -- 57
2020-07-24 20:00:00 29.2 10 Este 19 Este 0 -- -- 52
2020-07-24 19:00:00 31.3 10 Este 21 Nordeste 0 -- -- 43
2020-07-24 18:00:00 32.2 11 Este 25 Sudeste 0 -- -- 44
2020-07-24 17:00:00 32.9 11 Este 26 Este -- -- -- 46
2020-07-24 16:00:00 33.5 12 Este 28 Nordeste 0 -- -- 44
2020-07-24 15:00:00 32.9 12 Sudeste 23 Sur 0 -- -- 46
2020-07-24 14:00:00 32.5 10 Sudeste 24 Este 0 -- -- 44
2020-07-24 13:00:00 32 12 Sudeste 23 Este 0 -- -- 40
2020-07-24 12:00:00 31.3 7 Este 17 Sudeste 0 -- -- 34
2020-07-24 11:00:00 29.6 5 Sudeste 12 Este 0 -- -- 36
2020-07-24 10:00:00 28.3 5 Este 10 Este 0 -- -- 39
2020-07-24 09:00:00 24.5 3 Este 9 Sudoeste 0 -- -- 52
2020-07-24 08:00:00 20.6 4 Sudoeste 9 Sudoeste 0 -- -- 60
2020-07-24 07:00:00 19.3 3 Sudoeste 9 Sudoeste 0 -- -- 60
2020-07-24 06:00:00 19.6 3 Noroeste 9 Sudoeste 0 -- -- 56
2020-07-24 05:00:00 19.6 4 Sudoeste 8 Sudoeste 0 -- -- 55
2020-07-24 04:00:00 20.3 4 Oeste 8 Sudoeste 0 -- -- 51
2020-07-24 03:00:00 20.7 5 Sudoeste 13 Oeste 0 -- -- 48
2020-07-24 02:00:00 20.6 0 Calma 8 Oeste 0 -- -- 48
2020-07-24 01:00:00 22.5 7 Oeste 13 Sudoeste 0 -- -- 40
2020-07-24 00:00:00 22.7 4 Noroeste 8 Sudoeste 0 -- -- 43
2020-07-23 23:00:00 24.3 5 Oeste 10 Sudoeste 0 -- -- 38
2020-07-23 22:00:00 26 4 Oeste 9 Sudoeste 0 -- -- 37
2020-07-23 21:00:00 28 4 Nordeste 14 Nordeste 0 -- -- 32
2020-07-23 20:00:00 31.5 6 Este 19 Este 0 -- -- 28
2020-07-23 19:00:00 33.4 10 Este 19 Este 0 -- -- 25
2020-07-23 18:00:00 34.6 11 Este 23 Este 0 -- -- 25
2020-07-23 17:00:00 35.1 12 Este 22 Este 0 -- -- 26
2020-07-23 16:00:00 35 8 Sudeste 20 Sudeste 0 -- -- 25
2020-07-23 15:00:00 34.7 8 Este 22 Este 0 -- -- 26
2020-07-23 14:00:00 34 8 Sudeste 18 Este 0 -- -- 26
2020-07-23 13:00:00 32.8 5 Nordeste 16 Este 0 -- -- 30
2020-07-23 12:00:00 30.7 6 Norte 14 Nordeste 0 -- -- 34
2020-07-23 11:00:00 29.8 3 Sudeste 9 Este 0 -- -- 40
2020-07-23 10:00:00 27.7 3 Este 6 Nordeste 0 -- -- 43
2020-07-23 09:00:00 24 2 Sur 6 Sur 0 -- -- 56
2020-07-23 08:00:00 18.5 2 Sudoeste 5 Sudoeste 0 -- -- 74
2020-07-23 07:00:00 17.1 2 Sudoeste 7 Sudoeste 0 -- -- 78
2020-07-23 06:00:00 17.4 4 Sudoeste 8 Sudoeste 0 -- -- 75
2020-07-23 05:00:00 17.8 5 Sudoeste 9 Sudoeste 0 -- -- 71
2020-07-23 04:00:00 18.1 3 Sudoeste 7 Sudoeste 0 -- -- 68
2020-07-23 03:00:00 18.3 3 Sudoeste 7 Oeste 0 -- -- 69
2020-07-23 02:00:00 19 5 Sudoeste 8 Oeste 0 -- -- 70
2020-07-23 01:00:00 20 3 Sudoeste 9 Oeste 0 -- -- 71
2020-07-23 00:00:00 20.7 5 Oeste 12 Oeste 0 -- -- 68
2020-07-22 23:00:00 21.9 8 Oeste 11 Oeste 0 -- -- 64
2020-07-22 22:00:00 23.2 0 Calma 6 Norte 0 -- -- 59
2020-07-22 21:00:00 25.6 5 Nordeste 13 Este 0 -- -- 50
2020-07-22 20:00:00 27.2 7 Nordeste 22 Este 0 -- -- 45
2020-07-22 19:00:00 28.6 14 Este 24 Norte 0 -- -- 40
2020-07-22 18:00:00 28.9 8 Este 26 Sudoeste 0 -- -- 45
2020-07-22 17:00:00 28.2 14 Nordeste 28 Nordeste 0 -- -- 49
2020-07-22 16:00:00 27.4 16 Nordeste 28 Nordeste 0 -- -- 52
2020-07-22 15:00:00 26.1 14 Nordeste 28 Norte 0.6 -- -- 66
2020-07-22 14:00:00 28.1 15 Nordeste 31 Este 0 -- -- 55
2020-07-22 13:00:00 28.7 19 Este 36 Este 0 -- -- 49
2020-07-22 12:00:00 27.4 15 Nordeste 22 Nordeste 0.2 -- -- 51
2020-07-22 11:00:00 27.4 8 Este 21 Este 0 -- -- 54
2020-07-22 10:00:00 25.1 6 Este 20 Nordeste 0 -- -- 69
2020-07-22 09:00:00 24.5 3 Este 7 Nordeste 0 -- -- 75
2020-07-22 08:00:00 21.5 0 Calma 5 Sudoeste 0 -- -- 87
2020-07-22 07:00:00 20.7 0 Calma 5 Oeste 0 -- -- 89
2020-07-22 06:00:00 20.6 0 Calma 4 Sudoeste 0 -- -- 89
2020-07-22 05:00:00 20.9 2 Sudoeste 4 Sudoeste 0 -- -- 88
2020-07-22 04:00:00 20.9 0 Calma 7 Sudoeste 0 -- -- 89
2020-07-22 03:00:00 21.5 4 Oeste 8 Oeste 0 -- -- 87
2020-07-22 02:00:00 22 0 Calma 3 Noroeste 0 -- -- 86
2020-07-22 01:00:00 22.3 0 Calma 5 Norte 0 -- -- 84
2020-07-22 00:00:00 22.9 4 Nordeste -- -- -- -- -- 84
2020-07-21 23:00:00 23.2 6 Sudeste 10 Sudeste 0 -- -- 83
2020-07-21 22:00:00 23.8 2 Nordeste 13 Nordeste 0 -- -- 77
2020-07-21 21:00:00 25.3 7 Este 17 Nordeste 0 -- -- 70
2020-07-21 20:00:00 26.9 12 Nordeste 19 Nordeste 0 -- -- 59
2020-07-21 19:00:00 28.9 13 Nordeste 22 Este 0 -- -- 50
2020-07-21 18:00:00 30 13 Este 28 Este 0 -- -- 45
2020-07-21 17:00:00 31.5 12 Este 27 Sudeste 0 -- -- 44
2020-07-21 16:00:00 31.3 12 Nordeste 23 Este 0 -- -- 48
2020-07-21 15:00:00 30.9 11 Este 23 Este 0 -- -- 48
2020-07-21 14:00:00 30.4 10 Este 28 Este 0 -- -- 49
2020-07-21 13:00:00 29.2 9 Sudeste 20 Este 0 -- -- 53
2020-07-21 12:00:00 27.8 6 Nordeste 16 Este 0 -- -- 59
2020-07-21 11:00:00 25.1 5 Nordeste 12 Nordeste 0 -- -- 70
2020-07-21 10:00:00 25.6 5 Este 10 Este 0 -- -- 68
2020-07-21 09:00:00 23.8 3 Sudeste 6 Este 0 -- -- 79
2020-07-21 08:00:00 20.8 0 Calma 7 Oeste 0 -- -- 88
2020-07-21 07:00:00 20.3 5 Oeste 8 Oeste 0 -- -- 89
2020-07-21 06:00:00 20.7 2 Oeste 6 Oeste 0 -- -- 88
2020-07-21 05:00:00 20.7 3 Noroeste 5 Noroeste 0 -- -- 90
2020-07-21 04:00:00 21.6 0 Calma 5 Noroeste 0 -- -- 85
2020-07-21 03:00:00 21.9 4 Norte 5 Norte 0 -- -- 88
2020-07-21 02:00:00 22.7 4 Nordeste 5 Nordeste 0 -- -- 84
2020-07-21 01:00:00 22.8 0 Calma 5 Nordeste 0 -- -- 83
2020-07-21 00:00:00 22.8 0 Calma 11 Nordeste 0 -- -- 80
2020-07-20 23:00:00 22.6 6 Nordeste 11 Nordeste 0 -- -- 79
2020-07-20 22:00:00 23.7 7 Nordeste 16 Este 0 -- -- 71
2020-07-20 21:00:00 25.5 10 Nordeste 20 Nordeste 0 -- -- 59
2020-07-20 20:00:00 26.5 12 Nordeste 25 Nordeste 0 -- -- 61
2020-07-20 19:00:00 28.3 13 Nordeste 27 Nordeste 0 -- -- 57
2020-07-20 18:00:00 30.7 14 Nordeste 23 Este 0 -- -- 54
2020-07-20 17:00:00 31.5 11 Sudeste 23 Este 0 -- -- 52
2020-07-20 16:00:00 31.5 9 Este -- -- -- -- -- 53
2020-07-20 15:00:00 30.2 10 Sudeste 22 Sudeste 0 -- -- 57
2020-07-20 14:00:00 29.2 6 Sudeste 13 Este 0 -- -- 60
2020-07-20 13:00:00 26.6 5 Este 12 Este 0 -- -- 69
2020-07-20 12:00:00 26.1 2 Sudeste 8 Sur 0 -- -- 69
2020-07-20 11:00:00 25.2 2 Sur 6 Este 0 -- -- 72
2020-07-20 10:00:00 24 0 Calma 5 Sudoeste 0 -- -- 77
2020-07-20 09:00:00 22.7 3 Sudoeste 6 Sudoeste 0 -- -- 80
2020-07-20 08:00:00 22.1 4 Oeste 6 Sudoeste 0 -- -- 82
2020-07-20 07:00:00 22.1 2 Oeste 4 Oeste 0 -- -- 82
2020-07-20 06:00:00 22.3 0 Calma 4 Oeste 0 -- -- 82
2020-07-20 05:00:00 22.6 0 Calma 8 Sudoeste 0 -- -- 81
2020-07-20 04:00:00 22.8 4 Sudoeste 10 Sudoeste 0 -- -- 80
2020-07-20 03:00:00 23 5 Sudoeste 9 Sudoeste 0 -- -- 79
2020-07-20 02:00:00 23.4 2 Oeste 8 Oeste 0 -- -- 76
2020-07-20 01:00:00 23.7 0 Calma 8 Nordeste 0 -- -- 70
2020-07-20 00:00:00 24.4 4 Norte 7 Nordeste 0 -- -- 66
2020-07-19 23:00:00 25.4 3 Norte 6 Norte 0 -- -- 61
2020-07-19 22:00:00 26.7 3 Noroeste 9 Norte 0 -- -- 56
2020-07-19 21:00:00 28.2 2 Sur 13 Nordeste 0 -- -- 52
2020-07-19 20:00:00 29.2 12 Nordeste 23 Nordeste 0 -- -- 48
2020-07-19 19:00:00 31.9 14 Nordeste 26 Este 0 -- -- 42
2020-07-19 18:00:00 33.4 13 Nordeste 21 Nordeste 0 -- -- 43
2020-07-19 17:00:00 34.3 10 Este 21 Este 0 -- -- 44
2020-07-19 16:00:00 34.5 10 Este 25 Nordeste 0 -- -- 44
2020-07-19 15:00:00 34.9 12 Este 22 Este 0 -- -- 39
2020-07-19 14:00:00 33.5 10 Este 19 Este 0 -- -- 42
2020-07-19 13:00:00 31.9 9 Este 18 Este 0 -- -- 47
2020-07-19 12:00:00 29.3 8 Nordeste 15 Nordeste 0 -- -- 54
2020-07-19 11:00:00 27.8 8 Este 15 Este 0 -- -- 58
2020-07-19 10:00:00 26 5 Nordeste 10 Nordeste 0 -- -- 62
2020-07-19 09:00:00 23.7 2 Este 6 Nordeste 0 -- -- 68
2020-07-19 08:00:00 19.9 2 Nordeste 14 Sudoeste 0 -- -- 82
2020-07-19 07:00:00 18.6 4 Sudoeste 7 Oeste 0 -- -- 85
2020-07-19 06:00:00 19.2 5 Oeste 7 Sudoeste 0 -- -- 84
2020-07-19 05:00:00 19.5 4 Sudoeste 8 Sudoeste 0 -- -- 81
2020-07-19 04:00:00 20 0 Calma 9 Oeste 0 -- -- 80
2020-07-19 03:00:00 20.8 6 Oeste 12 Sudoeste 0 -- -- 76
2020-07-19 02:00:00 21.5 5 Oeste 9 Noroeste 0 -- -- 74
2020-07-19 01:00:00 22.2 3 Oeste 9 Sudoeste 0 -- -- 72
2020-07-19 00:00:00 22.9 6 Oeste 9 Oeste 0 -- -- 71
2020-07-18 23:00:00 24 0 Calma 5 Norte 0 -- -- 69
2020-07-18 22:00:00 25.1 2 Norte 9 Este 0 -- -- 65
2020-07-18 21:00:00 26.6 7 Nordeste 19 Nordeste 0 -- -- 61
2020-07-18 20:00:00 28.6 11 Nordeste 19 Este 0 -- -- 56
2020-07-18 19:00:00 31.2 6 Este 17 Sudeste 0 -- -- 49
2020-07-18 18:00:00 31.3 10 Este 22 Este 0 -- -- 49
2020-07-18 17:00:00 31.4 10 Este 24 Este 0 -- -- 50
2020-07-18 16:00:00 31.7 12 Este 27 Sudeste 0 -- -- 49
2020-07-18 15:00:00 31.4 9 Este 21 Este 0 -- -- 47
2020-07-18 14:00:00 30.6 8 Sudeste 19 Sudeste 0 -- -- 48
2020-07-18 13:00:00 29.7 7 Nordeste 19 Nordeste 0 -- -- 52
2020-07-18 12:00:00 28.1 7 Sudeste 19 Este 0 -- -- 56
2020-07-18 11:00:00 25.8 4 Nordeste 13 Nordeste 0 -- -- 65
2020-07-18 10:00:00 25.5 8 Nordeste 13 Nordeste 0 -- -- 66
2020-07-18 09:00:00 24.8 4 Este 9 Este 0 -- -- 71
2020-07-18 08:00:00 21.5 0 Calma 4 Oeste 0 -- -- 84
2020-07-18 07:00:00 20.6 0 Calma 0 Calma 0 -- -- 85
2020-07-18 06:00:00 20.8 0 Calma 3 Oeste 0 -- -- 83
2020-07-18 05:00:00 20.8 2 Sudoeste 5 Oeste 0 -- -- 83
2020-07-18 04:00:00 20.5 0 Calma 6 Sudoeste 0 -- -- 83
2020-07-18 03:00:00 20 3 Oeste 6 Oeste 0 -- -- 84
2020-07-18 02:00:00 20.4 4 Sudoeste 8 Sudoeste 0 -- -- 80
2020-07-18 01:00:00 20.8 6 Sudoeste 8 Oeste 0 -- -- 78
2020-07-18 00:00:00 21.8 6 Oeste 9 Oeste 0 -- -- 70
2020-07-17 23:00:00 22.4 0 Calma 5 Nordeste 0 -- -- 70
2020-07-17 22:00:00 23.6 0 Calma 11 Nordeste 0 -- -- 67
2020-07-17 21:00:00 24.9 6 Nordeste 15 Nordeste 0 -- -- 63
2020-07-17 20:00:00 26.3 10 Nordeste 18 Nordeste 0 -- -- 55
2020-07-17 19:00:00 26.2 8 Nordeste 23 Nordeste 0 -- -- 59
2020-07-17 18:00:00 26.3 17 Nordeste 30 Nordeste 0 -- -- 63
2020-07-17 17:00:00 29.9 13 Nordeste 27 Este 0 -- -- 54
2020-07-17 16:00:00 30.6 11 Este 22 Nordeste 0 -- -- 52
2020-07-17 15:00:00 30.5 14 Este 30 Nordeste 0 -- -- 53
2020-07-17 14:00:00 29.6 10 Sudeste 22 Sudeste 0 -- -- 53
2020-07-17 13:00:00 29.2 8 Sudeste 19 Este 0 -- -- 54
2020-07-17 12:00:00 28 6 Nordeste 16 Nordeste 0 -- -- 57
2020-07-17 11:00:00 26.6 6 Nordeste 12 Este 0 -- -- 61
2020-07-17 10:00:00 25.1 5 Este 10 Este 0 -- -- 66
2020-07-17 09:00:00 22.7 0 Calma 5 Nordeste 0 -- -- 69
2020-07-17 08:00:00 19.2 3 Sudoeste 8 Sudoeste 0 -- -- 79
2020-07-17 07:00:00 18 2 Sudoeste 7 Sudoeste 0 -- -- 81
2020-07-17 06:00:00 18 3 Sudoeste 8 Sudoeste 0 -- -- 80
2020-07-17 05:00:00 18.2 4 Oeste 6 Oeste 0 -- -- 80
2020-07-17 04:00:00 19 0 Calma 7 Sudoeste 0 -- -- 77
2020-07-17 03:00:00 19.7 4 Sudoeste 8 Sudoeste 0 -- -- 75
2020-07-17 02:00:00 20.3 4 Oeste 11 Sudoeste 0 -- -- 74
2020-07-17 01:00:00 20.7 6 Sudoeste 9 Sudoeste 0 -- -- 75
2020-07-17 00:00:00 21.4 0 Calma 4 Noroeste 0 -- -- 75
2020-07-16 23:00:00 22.7 0 Calma 7 Norte 0 -- -- 72
2020-07-16 22:00:00 23.6 3 Norte 17 Nordeste 0 -- -- 69
2020-07-16 21:00:00 24.9 9 Nordeste 19 Nordeste 0 -- -- 66
2020-07-16 20:00:00 27.3 10 Este 22 Nordeste 0 -- -- 56
2020-07-16 19:00:00 29.5 7 Este 18 Sudeste 0 -- -- 54
2020-07-16 18:00:00 30.1 9 Este 19 Sudeste 0 -- -- 54
2020-07-16 17:00:00 29.9 10 Sudeste 27 Este 0 -- -- 53
2020-07-16 16:00:00 30.1 13 Este 27 Sudeste 0 -- -- 50
2020-07-16 15:00:00 30.8 10 Este 24 Este 0 -- -- 47
2020-07-16 14:00:00 29.4 8 Nordeste 19 Este 0 -- -- 49
2020-07-16 13:00:00 28.9 9 Sudeste 21 Este 0 -- -- 49
2020-07-16 12:00:00 28.1 6 Sudeste 17 Sudeste 0 -- -- 51
2020-07-16 11:00:00 26.1 8 Nordeste 16 Norte 0 -- -- 61
2020-07-16 10:00:00 25.4 6 Sudeste 12 Este 0 -- -- 63
2020-07-16 09:00:00 23.6 3 Sudeste 6 Sudoeste 0 -- -- 72
2020-07-16 08:00:00 18.7 0 Calma 7 Sudoeste 0 -- -- 82
2020-07-16 07:00:00 17.7 5 Oeste 9 Oeste 0 -- -- 82
2020-07-16 06:00:00 17.8 5 Sudoeste 9 Sudoeste 0 -- -- 81
2020-07-16 05:00:00 18.7 3 Sudoeste 11 Sudoeste 0 -- -- 78
2020-07-16 04:00:00 19.4 4 Sudoeste 14 Sudoeste 0 -- -- 76
2020-07-16 03:00:00 20 6 Sudoeste 9 Sudoeste 0 -- -- 74
2020-07-16 02:00:00 19.8 0 Calma 12 Sudoeste 0 -- -- 77
2020-07-16 01:00:00 20.6 6 Sudoeste 8 Sudoeste 0 -- -- 75
2020-07-16 00:00:00 21.2 4 Sudoeste 7 Sudoeste 0 -- -- 74
2020-07-15 23:00:00 22.2 0 Calma 5 Oeste 0 -- -- 72
2020-07-15 22:00:00 23.7 2 Nordeste 10 Nordeste 0 -- -- 64
2020-07-15 21:00:00 25.8 7 Nordeste 15 Nordeste 0 -- -- 61
2020-07-15 20:00:00 27.7 7 Este 18 Este 0 -- -- 59
2020-07-15 19:00:00 29.2 10 Este 23 Sudeste 0 -- -- 56
2020-07-15 18:00:00 29.8 10 Este 22 Sudeste 0 -- -- 52
2020-07-15 17:00:00 30.2 9 Este 19 Este -- -- -- 52
2020-07-15 16:00:00 29.8 9 Sudeste 21 Este 0 -- -- 51
2020-07-15 15:00:00 29 8 Sudeste 16 Este 0 -- -- 50
2020-07-15 14:00:00 27.9 6 Este 17 Este 0 -- -- 53
2020-07-15 13:00:00 26.9 6 Este 16 Este 0 -- -- 57
2020-07-15 12:00:00 25.1 5 Este 12 Nordeste 0 -- -- 65
2020-07-15 11:00:00 25.1 4 Sudeste 13 Este 0 -- -- 66
2020-07-15 10:00:00 23.6 3 Este 6 Este 0 -- -- 72
2020-07-15 09:00:00 20.9 3 Este 8 Oeste 0 -- -- 79
2020-07-15 08:00:00 17.1 4 Oeste 8 Sudoeste 0 -- -- 91
2020-07-15 07:00:00 15.5 2 Oeste 7 Noroeste 0 -- -- 94
2020-07-15 06:00:00 15.7 0 Calma 5 Sudoeste 0 -- -- 94
2020-07-15 05:00:00 16.1 0 Calma 8 Oeste 0 -- -- 93
2020-07-15 04:00:00 16.1 3 Sudoeste 6 Oeste 0 -- -- 92
2020-07-15 03:00:00 16.5 4 Oeste 10 Sudoeste 0 -- -- 91
2020-07-15 02:00:00 16.3 6 Sudoeste 12 Sudoeste 0 -- -- 91
2020-07-15 01:00:00 16.6 7 Sudoeste 12 Oeste 0 -- -- 91
2020-07-15 00:00:00 17.2 5 Oeste 10 Oeste 0 -- -- 91
2020-07-14 23:00:00 18 2 Nordeste 17 Sur 0 -- -- 90
2020-07-14 22:00:00 18.6 8 Sudoeste 20 Sudoeste 0.2 -- -- 88
2020-07-14 21:00:00 18.9 7 Sudoeste 14 Sudoeste 2.4 -- -- 90
2020-07-14 20:00:00 19.9 10 Noroeste 27 Norte 2.4 -- -- 81
2020-07-14 19:00:00 23.6 12 Nordeste 26 Este 0 -- -- 73
2020-07-14 18:00:00 24.8 13 Este 23 Este 0 -- -- 66
2020-07-14 17:00:00 25 12 Nordeste 26 Nordeste 0 -- -- 65
2020-07-14 16:00:00 26.9 10 Nordeste 27 Este 0 -- -- 62
2020-07-14 15:00:00 29 10 Este 25 Este 0 -- -- 56
2020-07-14 14:00:00 27.6 8 Sudeste 18 Sur 0 -- -- 58
2020-07-14 13:00:00 26 4 Nordeste 11 Sudeste 0.2 -- -- 64
2020-07-14 12:00:00 23 2 Sur 15 Oeste 0.2 -- -- 76
2020-07-14 11:00:00 21.2 7 Oeste 15 Sur 0.8 -- -- 84
2020-07-14 10:00:00 23.3 3 Nordeste 7 Sudeste 0 -- -- 77
2020-07-14 09:00:00 22.6 0 Calma 6 Sudoeste 0 -- -- 77
2020-07-14 08:00:00 20.1 6 Sudoeste 9 Sudoeste 0 -- -- 83
2020-07-14 07:00:00 18.8 4 Sudoeste 7 Sudoeste 0 -- -- 85
2020-07-14 06:00:00 19.1 4 Sudoeste 9 Sudoeste 0 -- -- 81
2020-07-14 05:00:00 19.4 3 Sudoeste 8 Sudoeste 0 -- -- 80
2020-07-14 04:00:00 19.8 6 Sudoeste 11 Oeste 0 -- -- 78
2020-07-14 03:00:00 19.8 0 Calma 7 Sudoeste 0 -- -- 80
2020-07-14 02:00:00 20.3 2 Sudoeste 8 Oeste 0 -- -- 78
2020-07-14 01:00:00 20.2 2 Sudoeste 8 Noroeste 0 -- -- 80
2020-07-14 00:00:00 21.4 4 Oeste 7 Oeste 0 -- -- 77
2020-07-13 23:00:00 22.2 0 Calma 6 Norte 0 -- -- 76
2020-07-13 22:00:00 23.4 2 Nordeste 10 Nordeste 0 -- -- 70
2020-07-13 21:00:00 25.1 8 Nordeste 16 Este 0 -- -- 60
2020-07-13 20:00:00 27.1 9 Nordeste 18 Este 0 -- -- 55
2020-07-13 19:00:00 29.1 12 Este 24 Sudeste 0 -- -- 47
2020-07-13 18:00:00 30 9 Este 21 Este 0 -- -- 45
2020-07-13 17:00:00 30 12 Sudeste 24 Sudeste 0 -- -- 48
2020-07-13 16:00:00 30.1 11 Sudeste 22 Este 0 -- -- 49
2020-07-13 15:00:00 30.2 7 Nordeste 27 Sudeste 0 -- -- 47
2020-07-13 14:00:00 29.3 11 Este 21 Este 0 -- -- 49
2020-07-13 13:00:00 28.5 10 Sudeste 18 Sudeste 0 -- -- 52
2020-07-13 12:00:00 27.4 6 Este 15 Sur 0 -- -- 55
2020-07-13 11:00:00 26.4 4 Nordeste 9 Este 0 -- -- 62
2020-07-13 10:00:00 23.6 0 Calma 5 Este 0 -- -- 72
2020-07-13 09:00:00 21.6 3 Sudeste 6 Este 0 -- -- 84
2020-07-13 08:00:00 17.8 2 Nordeste 8 Oeste 0 -- -- 93
2020-07-13 07:00:00 17.1 0 Calma 9 Oeste 0 -- -- 92
2020-07-13 06:00:00 17.7 5 Oeste 10 Oeste 0 -- -- 90
2020-07-13 05:00:00 17.7 2 Sudoeste 8 Oeste 0 -- -- 93
2020-07-13 04:00:00 18.2 6 Oeste 12 Oeste 0 -- -- 91
2020-07-13 03:00:00 18.7 3 Sudeste 13 Oeste 0.2 -- -- 92
2020-07-13 02:00:00 19.6 4 Sudoeste 12 Oeste 0.2 -- -- 91
2020-07-13 01:00:00 20.2 11 Sudoeste 23 Sudoeste 0 -- -- 91
2020-07-13 00:00:00 21 7 Norte 28 Noroeste 1.2 -- -- 88
2020-07-12 23:00:00 21.2 3 Oeste 9 Norte 0 -- -- 91
2020-07-12 22:00:00 21.6 3 Oeste 6 Oeste 0.4 -- -- 93
2020-07-12 21:00:00 21.8 6 Norte 18 Sudeste 2.6 -- -- 92
2020-07-12 20:00:00 22.3 6 Sudeste 17 Este 0.2 -- -- 88
2020-07-12 19:00:00 22.9 8 Nordeste 14 Nordeste 0.4 -- -- 89
2020-07-12 18:00:00 24.5 9 Este 17 Nordeste 0.2 -- -- 80
2020-07-12 17:00:00 24.3 8 Este 23 Este 0.2 -- -- 82
2020-07-12 16:00:00 27.1 15 Nordeste -- -- -- -- -- 66
2020-07-12 15:00:00 29.1 8 Nordeste 23 Nordeste 0 -- -- 58
2020-07-12 14:00:00 28.1 14 Nordeste 23 Nordeste 0 -- -- 60
2020-07-12 13:00:00 27.4 9 Nordeste 23 Este 0 -- -- 62
2020-07-12 12:00:00 26.4 10 Este 23 Nordeste 0 -- -- 66
2020-07-12 11:00:00 24 9 Este 15 Este 0 -- -- 75
2020-07-12 10:00:00 23 6 Este 14 Nordeste 0 -- -- 79
2020-07-12 09:00:00 21.5 3 Oeste 18 Nordeste 0 -- -- 85
2020-07-12 08:00:00 20.8 4 Nordeste 23 Nordeste 0 -- -- 87
2020-07-12 07:00:00 19.7 5 Oeste 10 Noroeste 0 -- -- 88
2020-07-12 06:00:00 19.3 0 Calma 9 Oeste 0 -- -- 89
2020-07-12 05:00:00 19.5 5 Oeste 8 Sudoeste 0 -- -- 89
2020-07-12 04:00:00 20 5 Oeste 8 Sudoeste 0 -- -- 88
2020-07-12 03:00:00 20.8 5 Oeste 8 Oeste 0 -- -- 87
2020-07-12 02:00:00 21.1 3 Norte 5 Norte 0 -- -- 87
2020-07-12 01:00:00 21 0 Calma 5 Norte 0 -- -- 85
2020-07-12 00:00:00 21.7 3 Norte 5 Norte 0 -- -- 84
2020-07-11 23:00:00 22.5 4 Nordeste 8 Nordeste 0 -- -- 81
2020-07-11 22:00:00 23.2 7 Nordeste 13 Nordeste 0 -- -- 79
2020-07-11 21:00:00 25 8 Este 16 Sudeste 0 -- -- 72
2020-07-11 20:00:00 26.5 9 Este 20 Este 0 -- -- 65
2020-07-11 19:00:00 28.2 10 Este 21 Este 0 -- -- 60
2020-07-11 18:00:00 28.7 10 Este 27 Sudeste 0 -- -- 56
2020-07-11 17:00:00 29 13 Este 26 Este 0 -- -- 55
2020-07-11 16:00:00 29.8 12 Este 28 Nordeste 0 -- -- 52
2020-07-11 15:00:00 29.2 14 Este 26 Nordeste 0 -- -- 52
2020-07-11 14:00:00 28.2 12 Este 24 Este 0 -- -- 55
2020-07-11 13:00:00 26.3 13 Nordeste 24 Nordeste 0 -- -- 63
2020-07-11 12:00:00 25.9 8 Este 24 Este 0 -- -- 64
2020-07-11 11:00:00 25.3 9 Este 20 Este 0 -- -- 70
2020-07-11 10:00:00 24.3 3 Sur 6 Sudeste 0 -- -- 73
2020-07-11 09:00:00 22.8 2 Este 4 Este 0 -- -- 72
2020-07-11 08:00:00 20 0 Calma 8 Sudoeste 0 -- -- 82
2020-07-11 07:00:00 18 5 Sudoeste 10 Sudoeste 0 -- -- 85
2020-07-11 06:00:00 18.1 2 Oeste 9 Oeste 0 -- -- 81
2020-07-11 05:00:00 18.5 5 Oeste 8 Oeste 0 -- -- 79
2020-07-11 04:00:00 19.1 3 Oeste 8 Sudoeste 0 -- -- 79
2020-07-11 03:00:00 19.5 4 Sudoeste 7 Oeste 0 -- -- 81
2020-07-11 02:00:00 20.3 4 Sudoeste 9 Oeste 0 -- -- 79
2020-07-11 01:00:00 21 5 Oeste 8 Oeste 0 -- -- 78
2020-07-11 00:00:00 21.9 0 Calma 6 Oeste 0 -- -- 72
2020-07-10 23:00:00 23.1 0 Calma 5 Norte 0 -- -- 70
2020-07-10 22:00:00 24.6 3 Nordeste 13 Nordeste 0 -- -- 58
2020-07-10 21:00:00 26.5 9 Nordeste 18 Este 0 -- -- 53
2020-07-10 20:00:00 28.2 10 Nordeste 17 Este 0 -- -- 46
2020-07-10 19:00:00 29.2 12 Nordeste 23 Nordeste 0 -- -- 44
2020-07-10 18:00:00 30.1 12 Nordeste 24 Nordeste 0 -- -- 45
2020-07-10 17:00:00 31.3 11 Este 25 Este 0 -- -- 39
2020-07-10 16:00:00 31.9 10 Este 27 Nordeste 0 -- -- 36
2020-07-10 15:00:00 31 12 Este 26 Nordeste 0 -- -- 39
2020-07-10 14:00:00 30.6 9 Este 22 Este 0 -- -- 40
2020-07-10 13:00:00 29.5 12 Este 22 Sudeste 0 -- -- 46
2020-07-10 12:00:00 28.8 8 Sudeste 18 Este 0 -- -- 52
2020-07-10 11:00:00 27.6 5 Este 18 Este 0 -- -- 57
2020-07-10 10:00:00 26.5 6 Este 12 Este 0 -- -- 62
2020-07-10 09:00:00 21.5 0 Calma 9 Sudoeste -- -- -- 71
2020-07-10 08:00:00 19.4 6 Sudoeste 12 Sudoeste 0 -- -- 76
2020-07-10 07:00:00 18 5 Sudoeste 10 Sudoeste 0 -- -- 79
2020-07-10 06:00:00 18.2 4 Sudoeste 8 Oeste 0 -- -- 78
2020-07-10 05:00:00 19 5 Oeste 9 Oeste 0 -- -- 76
2020-07-10 04:00:00 19.7 0 Calma 12 Oeste 0 -- -- 80
2020-07-10 03:00:00 20.3 4 Sudoeste 6 Sudoeste 0 -- -- 81
2020-07-10 02:00:00 20.7 2 Sudoeste 8 Oeste 0 -- -- 77
2020-07-10 01:00:00 21.4 3 Oeste 10 Oeste 0 -- -- 73
2020-07-10 00:00:00 21.8 5 Sudoeste 11 Oeste 0 -- -- 71
2020-07-09 23:00:00 22.8 4 Sudoeste 9 Sudoeste 0 -- -- 70
2020-07-09 22:00:00 23.9 3 Norte 8 Este 0 -- -- 70
2020-07-09 21:00:00 25.3 4 Nordeste 15 Este 0 -- -- 64
2020-07-09 20:00:00 26.7 10 Nordeste 23 Nordeste 0 -- -- 59
2020-07-09 19:00:00 28.7 14 Nordeste 28 Este 0 -- -- 50
2020-07-09 18:00:00 30.3 14 Este 26 Nordeste 0 -- -- 41
2020-07-09 17:00:00 31 10 Este 22 Este 0 -- -- 39
2020-07-09 16:00:00 31.2 13 Este 26 Nordeste 0 -- -- 38
2020-07-09 15:00:00 31.5 13 Este 29 Este 0 -- -- 40
2020-07-09 14:00:00 30.3 14 Este 28 Este 0 -- -- 49
2020-07-09 13:00:00 29.7 9 Sudeste 19 Sudeste 0 -- -- 53
2020-07-09 12:00:00 28.8 8 Este 15 Este 0 -- -- 56
2020-07-09 11:00:00 27.3 5 Sudeste 15 Este 0 -- -- 60
2020-07-09 10:00:00 26.4 8 Este 14 Este 0 -- -- 63
2020-07-09 09:00:00 23.2 2 Sudeste 8 Norte 0 -- -- 74
2020-07-09 08:00:00 20.7 5 Oeste 14 Noroeste 0 -- -- 83
2020-07-09 07:00:00 19.9 3 Sur 10 Oeste 0 -- -- 80
2020-07-09 06:00:00 20.3 2 Oeste 8 Oeste 0 -- -- 78
2020-07-09 05:00:00 21.3 3 Sudoeste 12 Sudoeste 0 -- -- 74
2020-07-09 04:00:00 21.6 4 Sudoeste 11 Oeste 0 -- -- 74
2020-07-09 03:00:00 22.1 4 Sur 11 Oeste 0 -- -- 74
2020-07-09 02:00:00 22.2 5 Noroeste 11 Oeste 0 -- -- 76
2020-07-09 01:00:00 22.3 4 Sudoeste 7 Sur 0 -- -- 75
2020-07-09 00:00:00 23 5 Oeste 9 Sudoeste 0 -- -- 73
2020-07-08 23:00:00 23.6 5 Sudoeste 14 Sudoeste 0 -- -- 71
2020-07-08 22:00:00 24.2 4 Nordeste 12 Sudeste 0 -- -- 66
2020-07-08 21:00:00 24.5 8 Este 18 Nordeste 0 -- -- 64
2020-07-08 20:00:00 25.4 8 Sudeste 21 Nordeste 0 -- -- 58
2020-07-08 19:00:00 26.2 7 Nordeste 15 Nordeste 0 -- -- 61
2020-07-08 18:00:00 28.3 8 Este 17 Este 0 -- -- 56
2020-07-08 17:00:00 29.6 9 Nordeste 18 Sudeste 0 -- -- 57
2020-07-08 16:00:00 30 11 Sudeste 22 Este 0 -- -- 58
2020-07-08 15:00:00 29.7 12 Nordeste 28 Nordeste 0 -- -- 58
2020-07-08 14:00:00 30 11 Este 27 Sudeste 0 -- -- 56
2020-07-08 13:00:00 28.4 10 Este 19 Sudeste 0 -- -- 57
2020-07-08 12:00:00 28.4 10 Este 17 Sudeste 0 -- -- 59
2020-07-08 11:00:00 27.6 7 Este 16 Este 0 -- -- 61
2020-07-08 10:00:00 26.4 4 Este 10 Este 0 -- -- 66
2020-07-08 09:00:00 23.2 3 Sudeste 4 Sur 0 -- -- 78
2020-07-08 08:00:00 20.7 0 Calma 7 Oeste 0 -- -- 85
2020-07-08 07:00:00 19.9 2 Sudoeste 8 Sudoeste 0 -- -- 86
2020-07-08 06:00:00 20 3 Sudoeste 6 Oeste 0 -- -- 84
2020-07-08 05:00:00 20.4 5 Sudoeste 8 Sudoeste 0 -- -- 82
2020-07-08 04:00:00 21.2 5 Oeste 7 Oeste 0 -- -- 79
2020-07-08 03:00:00 21.1 4 Oeste 8 Sudoeste 0 -- -- 78
2020-07-08 02:00:00 21.2 6 Oeste 10 Sudoeste 0 -- -- 80
2020-07-08 01:00:00 21.9 4 Sudoeste 6 Oeste 0 -- -- 76
2020-07-08 00:00:00 22.6 0 Calma 3 Nordeste 0 -- -- 73